HAZ8407 ZGSZ-RJCC
Flight info
| Callsign | HAZ8407 |
|---|---|
| Flight time | N/A |
| Altitude | 33100 |
| Route | IDUMA W22 SHL G471 PLT A599 JTN G327 LAMEN A593 SADLI Y590 BEDAR Y591 FUE V28 DGC Y14 GOLDO Y19 MRE Y13 SIRAO Y139 NAVER |
| Aircraft | B764/H-SDE2E3FGILRWXY/L2J |
Departure
| Time | 2026-04-26 04:46 |
|---|---|
| Airport | Shenzhen Bao'an International Airport (ZGSZ) |
Arrival
| Time | N/A |
|---|---|
| Airport | New Chitose Airport (RJCC) |
| Time | Latitude | Longitude | Altitude | Speed | Heading |
|---|---|---|---|---|---|
| 2026-04-26 03:48 | 22.62659 | 113.82189 | 24 ft | 0 kts | 242° |
| 2026-04-26 04:39 | 22.62658 | 113.82188 | 23 ft | 1 kts | 242° |
| 2026-04-26 04:39 | 22.62652 | 113.82175 | 23 ft | 2 kts | 242° |
| 2026-04-26 04:40 | 22.62644 | 113.82156 | 23 ft | 3 kts | 245° |
| 2026-04-26 04:40 | 22.62641 | 113.82120 | 23 ft | 4 kts | 291° |
| 2026-04-26 04:40 | 22.62672 | 113.82082 | 23 ft | 7 kts | 319° |
| 2026-04-26 04:40 | 22.62712 | 113.82056 | 23 ft | 7 kts | 333° |
| 2026-04-26 04:41 | 22.62778 | 113.82021 | 23 ft | 12 kts | 333° |
| 2026-04-26 04:41 | 22.62884 | 113.81963 | 23 ft | 22 kts | 333° |
| 2026-04-26 04:41 | 22.63049 | 113.81871 | 23 ft | 26 kts | 333° |
| 2026-04-26 04:41 | 22.63208 | 113.81783 | 23 ft | 24 kts | 334° |
| 2026-04-26 04:42 | 22.63361 | 113.81702 | 23 ft | 25 kts | 333° |
| 2026-04-26 04:42 | 22.63534 | 113.81607 | 23 ft | 34 kts | 333° |
| 2026-04-26 04:42 | 22.63802 | 113.81460 | 23 ft | 45 kts | 333° |
| 2026-04-26 04:42 | 22.64075 | 113.81309 | 23 ft | 42 kts | 334° |
| 2026-04-26 04:43 | 22.64327 | 113.81164 | 23 ft | 39 kts | 329° |
| 2026-04-26 04:43 | 22.64562 | 113.81033 | 23 ft | 36 kts | 333° |
| 2026-04-26 04:43 | 22.64776 | 113.80913 | 23 ft | 33 kts | 335° |
| 2026-04-26 04:43 | 22.64907 | 113.80743 | 23 ft | 27 kts | 324° |
| 2026-04-26 04:44 | 22.65071 | 113.80656 | 23 ft | 24 kts | 332° |
| 2026-04-26 04:44 | 22.65216 | 113.80571 | 23 ft | 22 kts | 332° |
| 2026-04-26 04:44 | 22.65338 | 113.80495 | 23 ft | 18 kts | 308° |
| 2026-04-26 04:44 | 22.65335 | 113.80421 | 23 ft | 11 kts | 248° |
| 2026-04-26 04:45 | 22.65276 | 113.80346 | 23 ft | 14 kts | 190° |
| 2026-04-26 04:45 | 22.65173 | 113.80379 | 23 ft | 23 kts | 154° |
| 2026-04-26 04:45 | 22.64823 | 113.80572 | 23 ft | 90 kts | 153° |
| 2026-04-26 04:45 | 22.64061 | 113.80991 | 24 ft | 153 kts | 153° |
| 2026-04-26 04:46 | 22.62943 | 113.81596 | 158 ft | 197 kts | 156° |
| 2026-04-26 04:46 | 22.61597 | 113.82279 | 502 ft | 228 kts | 156° |
| 2026-04-26 04:46 | 22.60198 | 113.83053 | 817 ft | 219 kts | 155° |
| 2026-04-26 04:46 | 22.58822 | 113.83815 | 1114 ft | 224 kts | 155° |
| 2026-04-26 04:47 | 22.57383 | 113.84609 | 1576 ft | 237 kts | 155° |
| 2026-04-26 04:47 | 22.55863 | 113.85447 | 2017 ft | 252 kts | 155° |
| 2026-04-26 04:47 | 22.54229 | 113.86348 | 2463 ft | 269 kts | 154° |
| 2026-04-26 04:47 | 22.52527 | 113.87344 | 2897 ft | 289 kts | 146° |
| 2026-04-26 04:48 | 22.50450 | 113.91113 | 3752 ft | 287 kts | 95° |
| 2026-04-26 04:48 | 22.50670 | 113.93135 | 4145 ft | 276 kts | 66° |
| 2026-04-26 04:48 | 22.51654 | 113.94929 | 4605 ft | 279 kts | 54° |
| 2026-04-26 04:49 | 22.52702 | 113.96697 | 5007 ft | 281 kts | 58° |
| 2026-04-26 04:49 | 22.53667 | 113.98537 | 5407 ft | 281 kts | 60° |
| 2026-04-26 04:49 | 22.54707 | 114.00329 | 5803 ft | 282 kts | 45° |
| 2026-04-26 04:49 | 22.56301 | 114.01522 | 6249 ft | 279 kts | 17° |
| 2026-04-26 04:50 | 22.58228 | 114.01971 | 6709 ft | 281 kts | 6° |
| 2026-04-26 04:50 | 22.60167 | 114.02245 | 7110 ft | 281 kts | 5° |
| 2026-04-26 04:50 | 22.62116 | 114.02494 | 7511 ft | 282 kts | 5° |
| 2026-04-26 04:50 | 22.64072 | 114.02721 | 7915 ft | 283 kts | 4° |
| 2026-04-26 04:51 | 22.66079 | 114.02943 | 8325 ft | 284 kts | 4° |
| 2026-04-26 04:51 | 22.68058 | 114.03157 | 8729 ft | 286 kts | 4° |
| 2026-04-26 04:51 | 22.70036 | 114.03343 | 9127 ft | 286 kts | 358° |
| 2026-04-26 04:51 | 22.71981 | 114.02940 | 9556 ft | 285 kts | 338° |
| 2026-04-26 04:52 | 22.73838 | 114.02148 | 9978 ft | 288 kts | 338° |
| 2026-04-26 04:52 | 22.75712 | 114.01343 | 10379 ft | 289 kts | 337° |
| 2026-04-26 04:52 | 22.77592 | 114.00521 | 10759 ft | 291 kts | 337° |
| 2026-04-26 04:52 | 22.79490 | 113.99683 | 10802 ft | 297 kts | 337° |
| 2026-04-26 04:53 | 22.81395 | 113.98839 | 10789 ft | 290 kts | 337° |
| 2026-04-26 04:53 | 22.83278 | 113.98002 | 10803 ft | 290 kts | 337° |
| 2026-04-26 04:53 | 22.85152 | 113.97167 | 10802 ft | 291 kts | 337° |
| 2026-04-26 04:53 | 22.87051 | 113.96321 | 10800 ft | 291 kts | 337° |
| 2026-04-26 04:54 | 22.88942 | 113.95554 | 10797 ft | 294 kts | 347° |
| 2026-04-26 04:54 | 22.91082 | 113.95442 | 10863 ft | 320 kts | 5° |
| 2026-04-26 04:54 | 22.93398 | 113.95826 | 10827 ft | 340 kts | 8° |
| 2026-04-26 04:54 | 22.95700 | 113.96222 | 10793 ft | 335 kts | 8° |
| 2026-04-26 04:55 | 22.98011 | 113.96624 | 10804 ft | 336 kts | 8° |
| 2026-04-26 04:55 | 23.00311 | 113.97023 | 10801 ft | 336 kts | 8° |
| 2026-04-26 04:55 | 23.02645 | 113.97430 | 10799 ft | 334 kts | 8° |
| 2026-04-26 04:55 | 23.04958 | 113.97832 | 10800 ft | 334 kts | 8° |
| 2026-04-26 04:56 | 23.07270 | 113.98235 | 10800 ft | 334 kts | 8° |
| 2026-04-26 04:56 | 23.09587 | 113.98639 | 10800 ft | 334 kts | 8° |
| 2026-04-26 04:56 | 23.11892 | 113.99041 | 10802 ft | 334 kts | 8° |
| 2026-04-26 04:56 | 23.14190 | 113.99442 | 11246 ft | 334 kts | 8° |
| 2026-04-26 04:57 | 23.16538 | 113.99850 | 11881 ft | 343 kts | 8° |
| 2026-04-26 04:57 | 23.18937 | 114.00269 | 12504 ft | 354 kts | 8° |
| 2026-04-26 04:57 | 23.21404 | 114.00700 | 13125 ft | 364 kts | 8° |
| 2026-04-26 04:57 | 23.23943 | 114.01143 | 13745 ft | 375 kts | 8° |
| 2026-04-26 04:58 | 23.26582 | 114.01613 | 14371 ft | 385 kts | 11° |
| 2026-04-26 04:58 | 23.29189 | 114.02511 | 14994 ft | 397 kts | 24° |
| 2026-04-26 04:58 | 23.31646 | 114.04028 | 15630 ft | 408 kts | 34° |
| 2026-04-26 04:58 | 23.33917 | 114.06014 | 16268 ft | 420 kts | 39° |
| 2026-04-26 04:59 | 23.36193 | 114.08044 | 16884 ft | 430 kts | 38° |
| 2026-04-26 04:59 | 23.38590 | 114.10141 | 17511 ft | 442 kts | 38° |
| 2026-04-26 04:59 | 23.41030 | 114.12251 | 18128 ft | 449 kts | 37° |
| 2026-04-26 04:59 | 23.43495 | 114.14373 | 18733 ft | 452 kts | 37° |
| 2026-04-26 05:00 | 23.46012 | 114.16533 | 19347 ft | 456 kts | 37° |
| 2026-04-26 05:00 | 23.48519 | 114.18682 | 19735 ft | 465 kts | 37° |
| 2026-04-26 05:00 | 23.51098 | 114.20892 | 19712 ft | 462 kts | 37° |
| 2026-04-26 05:00 | 23.53613 | 114.23047 | 19714 ft | 458 kts | 37° |
| 2026-04-26 05:01 | 23.56150 | 114.25221 | 19723 ft | 461 kts | 37° |
| 2026-04-26 05:01 | 23.58700 | 114.27406 | 19717 ft | 459 kts | 37° |
| 2026-04-26 05:01 | 23.61223 | 114.29570 | 19720 ft | 459 kts | 37° |
| 2026-04-26 05:01 | 23.63741 | 114.31729 | 19719 ft | 459 kts | 37° |
| 2026-04-26 05:02 | 23.66297 | 114.33875 | 19719 ft | 459 kts | 36° |
| 2026-04-26 05:02 | 23.68888 | 114.35992 | 19721 ft | 458 kts | 36° |
| 2026-04-26 05:02 | 23.71423 | 114.38069 | 19690 ft | 451 kts | 36° |
| 2026-04-26 05:02 | 23.73929 | 114.40124 | 19704 ft | 455 kts | 36° |
| 2026-04-26 05:03 | 23.76506 | 114.42238 | 19699 ft | 454 kts | 36° |
| 2026-04-26 05:03 | 23.79054 | 114.44331 | 19764 ft | 452 kts | 36° |
| 2026-04-26 05:03 | 23.81572 | 114.46339 | 20267 ft | 451 kts | 32° |
| 2026-04-26 05:03 | 23.84388 | 114.47997 | 20787 ft | 461 kts | 22° |
| 2026-04-26 05:04 | 23.87457 | 114.49134 | 21299 ft | 464 kts | 13° |
| 2026-04-26 05:04 | 23.90638 | 114.49704 | 21801 ft | 466 kts | 4° |
| 2026-04-26 05:04 | 23.93867 | 114.49719 | 22307 ft | 470 kts | 357° |
| 2026-04-26 05:04 | 23.97164 | 114.49663 | 22814 ft | 474 kts | 2° |
| 2026-04-26 05:05 | 24.00440 | 114.49926 | 23317 ft | 477 kts | 6° |
| 2026-04-26 05:05 | 24.03769 | 114.50362 | 23821 ft | 479 kts | 7° |
| 2026-04-26 05:05 | 24.07075 | 114.50896 | 24319 ft | 479 kts | 9° |
| 2026-04-26 05:05 | 24.10249 | 114.51464 | 24798 ft | 479 kts | 9° |
| 2026-04-26 05:06 | 24.13687 | 114.52118 | 25321 ft | 478 kts | 10° |
| 2026-04-26 05:06 | 24.16926 | 114.52758 | 25813 ft | 477 kts | 10° |
| 2026-04-26 05:06 | 24.20234 | 114.53426 | 26317 ft | 477 kts | 10° |
| 2026-04-26 05:06 | 24.23522 | 114.54102 | 26835 ft | 489 kts | 11° |
| 2026-04-26 05:07 | 24.26957 | 114.54813 | 27367 ft | 503 kts | 11° |
| 2026-04-26 05:07 | 24.30397 | 114.55531 | 27884 ft | 515 kts | 11° |
| 2026-04-26 05:07 | 24.33977 | 114.56279 | 28408 ft | 526 kts | 11° |
| 2026-04-26 05:07 | 24.37639 | 114.57046 | 28924 ft | 532 kts | 11° |
| 2026-04-26 05:08 | 24.41277 | 114.57810 | 29424 ft | 533 kts | 11° |
| 2026-04-26 05:08 | 24.44932 | 114.58578 | 29923 ft | 532 kts | 11° |
| 2026-04-26 05:08 | 24.48621 | 114.59354 | 30427 ft | 530 kts | 11° |
| 2026-04-26 05:08 | 24.52243 | 114.60117 | 30922 ft | 529 kts | 11° |
| 2026-04-26 05:09 | 24.55892 | 114.60885 | 31422 ft | 527 kts | 11° |
| 2026-04-26 05:09 | 24.59507 | 114.61648 | 31920 ft | 525 kts | 11° |
| 2026-04-26 05:09 | 24.63109 | 114.62408 | 32416 ft | 523 kts | 11° |
| 2026-04-26 05:09 | 24.66664 | 114.63158 | 32908 ft | 521 kts | 11° |
| 2026-04-26 05:10 | 24.70262 | 114.63918 | 33107 ft | 524 kts | 11° |
| 2026-04-26 05:10 | 24.73873 | 114.64681 | 33098 ft | 527 kts | 11° |
| 2026-04-26 05:10 | 24.80830 | 114.66154 | 33100 ft | 528 kts | 11° |
| 2026-04-26 05:11 | 24.87063 | 114.67474 | 33099 ft | 528 kts | 11° |
| 2026-04-26 05:11 | 24.94338 | 114.69016 | 33099 ft | 528 kts | 11° |
| 2026-04-26 05:12 | 25.01604 | 114.70560 | 33098 ft | 528 kts | 11° |
| 2026-04-26 05:12 | 25.08898 | 114.72111 | 33098 ft | 531 kts | 10° |
| 2026-04-26 05:13 | 25.16215 | 114.73667 | 33101 ft | 535 kts | 10° |
| 2026-04-26 05:13 | 25.23570 | 114.75234 | 33099 ft | 536 kts | 10° |
| 2026-04-26 05:14 | 25.30917 | 114.76801 | 33099 ft | 536 kts | 10° |
| 2026-04-26 05:14 | 25.38313 | 114.78380 | 33099 ft | 536 kts | 10° |
| 2026-04-26 05:15 | 25.45671 | 114.79953 | 33099 ft | 536 kts | 10° |
| 2026-04-26 05:15 | 25.53037 | 114.81531 | 33099 ft | 536 kts | 10° |
| 2026-04-26 05:16 | 25.60420 | 114.83113 | 33099 ft | 536 kts | 10° |
| 2026-04-26 05:16 | 25.67816 | 114.84701 | 33099 ft | 536 kts | 10° |
| 2026-04-26 05:17 | 25.75145 | 114.86485 | 33094 ft | 536 kts | 17° |
| 2026-04-26 05:17 | 25.81864 | 114.90107 | 33101 ft | 538 kts | 33° |
| 2026-04-26 05:18 | 25.87526 | 114.95676 | 33098 ft | 540 kts | 45° |
| 2026-04-26 05:18 | 25.92768 | 115.01760 | 33093 ft | 539 kts | 46° |
| 2026-04-26 05:19 | 25.97917 | 115.07812 | 33088 ft | 535 kts | 46° |
| 2026-04-26 05:19 | 26.03040 | 115.13872 | 33086 ft | 531 kts | 46° |
| 2026-04-26 05:20 | 26.08131 | 115.19918 | 33089 ft | 529 kts | 47° |
| 2026-04-26 05:20 | 26.13189 | 115.25943 | 33088 ft | 529 kts | 47° |
| 2026-04-26 05:21 | 26.18259 | 115.31994 | 33084 ft | 529 kts | 47° |
| 2026-04-26 05:21 | 26.23310 | 115.38031 | 33085 ft | 529 kts | 47° |
| 2026-04-26 05:22 | 26.28363 | 115.44081 | 33086 ft | 529 kts | 47° |
| 2026-04-26 05:22 | 26.33396 | 115.50114 | 33081 ft | 529 kts | 47° |
| 2026-04-26 05:23 | 26.38479 | 115.56217 | 33080 ft | 529 kts | 47° |
| 2026-04-26 05:23 | 26.43514 | 115.62270 | 33081 ft | 529 kts | 47° |
| 2026-04-26 05:24 | 26.48544 | 115.68326 | 33081 ft | 529 kts | 47° |
| 2026-04-26 05:24 | 26.53576 | 115.74392 | 33077 ft | 529 kts | 47° |
| 2026-04-26 05:25 | 26.58625 | 115.80486 | 33077 ft | 529 kts | 47° |
| 2026-04-26 05:25 | 26.63669 | 115.86585 | 33077 ft | 529 kts | 47° |
| 2026-04-26 05:26 | 26.68711 | 115.92689 | 33073 ft | 530 kts | 47° |
| 2026-04-26 05:26 | 26.73729 | 115.98772 | 33071 ft | 530 kts | 47° |
| 2026-04-26 05:27 | 26.78785 | 116.04909 | 33078 ft | 529 kts | 47° |
| 2026-04-26 05:27 | 26.83827 | 116.11040 | 33085 ft | 529 kts | 47° |
| 2026-04-26 05:28 | 26.88859 | 116.17165 | 33091 ft | 529 kts | 47° |
| 2026-04-26 05:28 | 26.93870 | 116.23244 | 33086 ft | 531 kts | 47° |
| 2026-04-26 05:29 | 26.98979 | 116.29400 | 33084 ft | 536 kts | 48° |
| 2026-04-26 05:29 | 27.04104 | 116.35587 | 33088 ft | 542 kts | 47° |
| 2026-04-26 05:30 | 27.09304 | 116.41870 | 33095 ft | 545 kts | 47° |
| 2026-04-26 05:30 | 27.14491 | 116.48146 | 33092 ft | 545 kts | 47° |
| 2026-04-26 05:31 | 27.19667 | 116.54419 | 33093 ft | 545 kts | 47° |
| 2026-04-26 05:31 | 27.24965 | 116.60642 | 33091 ft | 545 kts | 46° |
| 2026-04-26 05:32 | 27.30251 | 116.66795 | 33092 ft | 545 kts | 46° |
| 2026-04-26 05:32 | 27.35580 | 116.73006 | 33093 ft | 545 kts | 46° |
| 2026-04-26 05:33 | 27.40881 | 116.79195 | 33093 ft | 545 kts | 46° |
| 2026-04-26 05:33 | 27.46171 | 116.85382 | 33092 ft | 545 kts | 46° |
| 2026-04-26 05:34 | 27.51471 | 116.91589 | 33093 ft | 544 kts | 46° |
| 2026-04-26 05:34 | 27.56761 | 116.97707 | 33093 ft | 542 kts | 46° |
| 2026-04-26 05:35 | 27.62071 | 117.03849 | 33093 ft | 540 kts | 46° |
| 2026-04-26 05:35 | 27.67353 | 117.09966 | 33093 ft | 539 kts | 46° |
| 2026-04-26 05:36 | 27.72620 | 117.16077 | 33093 ft | 538 kts | 46° |
| 2026-04-26 05:36 | 27.77872 | 117.22179 | 33093 ft | 538 kts | 46° |
| 2026-04-26 05:37 | 27.83130 | 117.28294 | 33093 ft | 538 kts | 46° |
| 2026-04-26 05:37 | 27.88391 | 117.34425 | 33093 ft | 538 kts | 46° |
| 2026-04-26 05:38 | 27.93660 | 117.40575 | 33093 ft | 538 kts | 46° |
| 2026-04-26 05:38 | 27.98899 | 117.46697 | 33093 ft | 538 kts | 46° |
| 2026-04-26 05:39 | 28.04116 | 117.52803 | 33093 ft | 538 kts | 46° |
| 2026-04-26 05:39 | 28.09352 | 117.58939 | 33093 ft | 538 kts | 46° |
| 2026-04-26 05:40 | 28.14586 | 117.65079 | 33093 ft | 538 kts | 46° |
| 2026-04-26 05:40 | 28.19840 | 117.71252 | 33093 ft | 538 kts | 46° |
| 2026-04-26 05:41 | 28.25095 | 117.77437 | 33092 ft | 538 kts | 46° |
| 2026-04-26 05:41 | 28.30318 | 117.83592 | 33092 ft | 538 kts | 46° |
| 2026-04-26 05:42 | 28.35515 | 117.89726 | 33089 ft | 538 kts | 46° |
| 2026-04-26 05:42 | 28.40759 | 117.95926 | 33080 ft | 538 kts | 46° |
| 2026-04-26 05:43 | 28.45893 | 118.02185 | 33072 ft | 538 kts | 47° |
| 2026-04-26 05:43 | 28.51021 | 118.08493 | 33066 ft | 538 kts | 47° |
| 2026-04-26 05:44 | 28.56158 | 118.14820 | 33066 ft | 538 kts | 47° |
| 2026-04-26 05:44 | 28.61272 | 118.21127 | 33066 ft | 538 kts | 47° |
| 2026-04-26 05:45 | 28.66385 | 118.27444 | 33066 ft | 538 kts | 47° |
| 2026-04-26 05:45 | 28.71485 | 118.33753 | 33066 ft | 538 kts | 47° |
| 2026-04-26 05:46 | 28.76581 | 118.40068 | 33066 ft | 538 kts | 47° |
| 2026-04-26 05:46 | 28.81711 | 118.46434 | 33066 ft | 538 kts | 47° |
| 2026-04-26 05:47 | 28.86807 | 118.52769 | 33066 ft | 538 kts | 47° |
| 2026-04-26 05:47 | 28.91922 | 118.59137 | 33066 ft | 538 kts | 47° |
| 2026-04-26 05:48 | 28.96978 | 118.65441 | 33066 ft | 538 kts | 48° |
| 2026-04-26 05:48 | 29.02125 | 118.71866 | 33066 ft | 543 kts | 48° |
| 2026-04-26 05:49 | 29.09897 | 118.81595 | 33068 ft | 554 kts | 47° |
| 2026-04-26 05:50 | 29.15101 | 118.88123 | 33066 ft | 558 kts | 47° |
| 2026-04-26 05:50 | 29.20386 | 118.94758 | 33065 ft | 557 kts | 47° |
| 2026-04-26 05:51 | 29.25657 | 119.01389 | 33065 ft | 556 kts | 47° |
| 2026-04-26 05:51 | 29.30906 | 119.08010 | 33065 ft | 555 kts | 47° |
| 2026-04-26 05:52 | 29.36178 | 119.14671 | 33066 ft | 555 kts | 47° |
| 2026-04-26 05:52 | 29.41419 | 119.21320 | 33066 ft | 555 kts | 47° |
| 2026-04-26 05:53 | 29.46642 | 119.27954 | 33066 ft | 555 kts | 47° |
| 2026-04-26 05:53 | 29.51851 | 119.34583 | 33067 ft | 555 kts | 47° |
| 2026-04-26 05:54 | 29.57096 | 119.41262 | 33068 ft | 555 kts | 47° |
| 2026-04-26 05:54 | 29.62334 | 119.47938 | 33068 ft | 555 kts | 47° |
| 2026-04-26 05:55 | 29.67501 | 119.54588 | 33068 ft | 555 kts | 47° |
| 2026-04-26 05:55 | 29.72681 | 119.61277 | 33068 ft | 555 kts | 47° |
| 2026-04-26 05:56 | 29.78054 | 119.66884 | 33067 ft | 553 kts | 34° |
| 2026-04-26 05:56 | 29.84654 | 119.71504 | 33065 ft | 552 kts | 30° |
| 2026-04-26 05:57 | 29.91334 | 119.76035 | 33066 ft | 552 kts | 29° |
| 2026-04-26 05:57 | 29.98054 | 119.80577 | 33066 ft | 552 kts | 29° |
| 2026-04-26 05:58 | 30.04714 | 119.85076 | 33066 ft | 553 kts | 29° |
| 2026-04-26 05:58 | 30.10482 | 119.88974 | 33066 ft | 553 kts | 29° |
| 2026-04-26 05:59 | 30.16532 | 119.93067 | 33064 ft | 553 kts | 29° |
| 2026-04-26 05:59 | 30.23259 | 119.97623 | 33065 ft | 553 kts | 29° |
| 2026-04-26 06:00 | 30.29964 | 120.02171 | 33065 ft | 553 kts | 29° |
| 2026-04-26 06:00 | 30.36662 | 120.06721 | 33066 ft | 553 kts | 29° |
| 2026-04-26 06:01 | 30.43346 | 120.11269 | 33066 ft | 553 kts | 29° |
| 2026-04-26 06:01 | 30.50003 | 120.15806 | 33066 ft | 553 kts | 29° |
| 2026-04-26 06:02 | 30.56700 | 120.20380 | 33067 ft | 553 kts | 29° |
| 2026-04-26 06:02 | 30.63376 | 120.24946 | 33067 ft | 553 kts | 29° |
| 2026-04-26 06:03 | 30.70034 | 120.29507 | 33067 ft | 553 kts | 29° |
| 2026-04-26 06:03 | 30.76695 | 120.34077 | 33068 ft | 553 kts | 29° |
| 2026-04-26 06:04 | 30.83197 | 120.38962 | 33065 ft | 554 kts | 38° |
| 2026-04-26 06:04 | 30.88507 | 120.45599 | 33069 ft | 555 kts | 54° |
| 2026-04-26 06:05 | 30.92061 | 120.53696 | 33071 ft | 558 kts | 71° |
| 2026-04-26 06:05 | 30.94370 | 120.62487 | 33086 ft | 561 kts | 73° |
| 2026-04-26 06:06 | 30.96591 | 120.71323 | 33081 ft | 563 kts | 74° |
| 2026-04-26 06:06 | 30.98805 | 120.80235 | 33082 ft | 566 kts | 74° |
| 2026-04-26 06:07 | 31.01008 | 120.89145 | 33082 ft | 568 kts | 74° |
| 2026-04-26 06:07 | 31.03203 | 120.98083 | 33083 ft | 570 kts | 74° |
| 2026-04-26 06:08 | 31.05417 | 121.07136 | 33084 ft | 571 kts | 74° |
| 2026-04-26 06:08 | 31.07623 | 121.16131 | 33084 ft | 571 kts | 73° |
| 2026-04-26 06:09 | 31.09975 | 121.25124 | 33085 ft | 571 kts | 73° |
| 2026-04-26 06:09 | 31.11479 | 121.34251 | 33084 ft | 568 kts | 88° |
| 2026-04-26 06:10 | 31.10955 | 121.43475 | 33090 ft | 565 kts | 99° |
| 2026-04-26 06:10 | 31.10496 | 121.52719 | 33086 ft | 568 kts | 86° |
| 2026-04-26 06:11 | 31.12100 | 121.61785 | 33085 ft | 570 kts | 70° |
| 2026-04-26 06:11 | 31.15106 | 121.70419 | 33076 ft | 570 kts | 70° |
| 2026-04-26 06:12 | 31.17433 | 121.78744 | 33078 ft | 570 kts | 74° |
| 2026-04-26 06:12 | 31.19577 | 121.87773 | 33079 ft | 570 kts | 76° |
| 2026-04-26 06:13 | 31.21561 | 121.96873 | 33080 ft | 570 kts | 76° |
| 2026-04-26 06:13 | 31.23473 | 122.06031 | 33081 ft | 570 kts | 77° |
| 2026-04-26 06:14 | 31.25334 | 122.15144 | 33082 ft | 570 kts | 77° |
| 2026-04-26 06:14 | 31.27173 | 122.24262 | 33082 ft | 570 kts | 77° |
| 2026-04-26 06:15 | 31.29010 | 122.33440 | 33083 ft | 570 kts | 77° |
| 2026-04-26 06:15 | 31.30829 | 122.42578 | 33084 ft | 570 kts | 77° |
| 2026-04-26 06:16 | 31.32646 | 122.51750 | 33084 ft | 570 kts | 77° |
| 2026-04-26 06:16 | 31.34461 | 122.60949 | 33085 ft | 570 kts | 77° |
| 2026-04-26 06:17 | 31.36254 | 122.70077 | 33078 ft | 570 kts | 78° |
| 2026-04-26 06:17 | 31.38040 | 122.79207 | 33079 ft | 570 kts | 78° |
| 2026-04-26 06:18 | 31.39839 | 122.88441 | 33080 ft | 570 kts | 78° |
| 2026-04-26 06:18 | 31.41621 | 122.97629 | 33081 ft | 570 kts | 77° |
| 2026-04-26 06:19 | 31.43383 | 123.06747 | 33081 ft | 570 kts | 77° |
| 2026-04-26 06:19 | 31.45155 | 123.15951 | 33083 ft | 569 kts | 77° |
| 2026-04-26 06:20 | 31.46910 | 123.25104 | 33083 ft | 569 kts | 77° |
| 2026-04-26 06:20 | 31.48672 | 123.34328 | 33084 ft | 569 kts | 77° |
| 2026-04-26 06:21 | 31.50408 | 123.43462 | 33084 ft | 569 kts | 77° |
| 2026-04-26 06:21 | 31.52156 | 123.52694 | 33070 ft | 570 kts | 77° |
| 2026-04-26 06:22 | 31.53887 | 123.61870 | 33070 ft | 569 kts | 77° |
| 2026-04-26 06:22 | 31.55586 | 123.70915 | 33063 ft | 569 kts | 78° |
| 2026-04-26 06:23 | 31.57299 | 123.80075 | 33064 ft | 569 kts | 78° |
| 2026-04-26 06:23 | 31.59022 | 123.89330 | 33065 ft | 569 kts | 78° |
| 2026-04-26 06:24 | 31.60721 | 123.98491 | 33066 ft | 569 kts | 78° |
| 2026-04-26 06:24 | 31.62699 | 124.07639 | 33067 ft | 569 kts | 75° |
| 2026-04-26 06:25 | 31.64736 | 124.16727 | 33067 ft | 569 kts | 75° |
| 2026-04-26 06:25 | 31.66430 | 124.24326 | 33068 ft | 569 kts | 75° |
| 2026-04-26 06:26 | 31.68797 | 124.34988 | 33069 ft | 569 kts | 75° |
| 2026-04-26 06:26 | 31.70811 | 124.44105 | 33003 ft | 570 kts | 75° |
| 2026-04-26 06:27 | 31.72822 | 124.53236 | 32991 ft | 569 kts | 75° |
| 2026-04-26 06:27 | 31.74829 | 124.62389 | 32998 ft | 569 kts | 75° |
| 2026-04-26 06:28 | 31.76813 | 124.71465 | 32991 ft | 569 kts | 76° |
| 2026-04-26 06:28 | 31.78791 | 124.80554 | 32992 ft | 569 kts | 76° |
| 2026-04-26 06:29 | 31.80766 | 124.89661 | 32992 ft | 568 kts | 75° |
| 2026-04-26 06:29 | 31.82140 | 124.98950 | 32995 ft | 566 kts | 88° |
| 2026-04-26 06:30 | 31.81480 | 125.08210 | 33000 ft | 565 kts | 100° |
| 2026-04-26 06:30 | 31.80070 | 125.17472 | 32993 ft | 566 kts | 101° |
| 2026-04-26 06:31 | 31.78601 | 125.26705 | 32994 ft | 566 kts | 101° |
| 2026-04-26 06:31 | 31.77099 | 125.35943 | 32994 ft | 566 kts | 101° |
| 2026-04-26 06:32 | 31.75592 | 125.45099 | 32999 ft | 566 kts | 101° |
| 2026-04-26 06:32 | 31.74067 | 125.54288 | 32997 ft | 566 kts | 101° |
| 2026-04-26 06:33 | 31.72877 | 125.63519 | 32993 ft | 566 kts | 92° |
| 2026-04-26 06:33 | 31.73606 | 125.72727 | 32993 ft | 565 kts | 77° |
| 2026-04-26 06:34 | 31.75549 | 125.81838 | 32992 ft | 566 kts | 75° |
| 2026-04-26 06:34 | 31.77526 | 125.90920 | 32992 ft | 566 kts | 75° |
| 2026-04-26 06:35 | 31.79502 | 125.99981 | 32992 ft | 566 kts | 75° |
| 2026-04-26 06:35 | 31.81489 | 126.09104 | 32994 ft | 566 kts | 75° |
| 2026-04-26 06:36 | 31.83454 | 126.18147 | 32996 ft | 566 kts | 75° |
| 2026-04-26 06:36 | 31.85439 | 126.27307 | 32993 ft | 566 kts | 75° |
| 2026-04-26 06:37 | 31.87402 | 126.36399 | 32993 ft | 566 kts | 75° |
| 2026-04-26 06:37 | 31.89345 | 126.45431 | 32997 ft | 566 kts | 75° |
| 2026-04-26 06:38 | 31.91315 | 126.54428 | 32994 ft | 566 kts | 74° |
| 2026-04-26 06:38 | 31.93271 | 126.63286 | 32995 ft | 566 kts | 74° |
| 2026-04-26 06:39 | 31.95242 | 126.72245 | 32990 ft | 566 kts | 75° |
| 2026-04-26 06:39 | 31.97239 | 126.81357 | 32993 ft | 566 kts | 75° |
| 2026-04-26 06:40 | 31.99233 | 126.90482 | 32994 ft | 566 kts | 75° |
| 2026-04-26 06:40 | 32.01180 | 126.99435 | 32993 ft | 566 kts | 75° |
| 2026-04-26 06:41 | 32.03161 | 127.08572 | 32993 ft | 564 kts | 74° |
| 2026-04-26 06:41 | 32.05934 | 127.17306 | 32999 ft | 562 kts | 64° |
| 2026-04-26 06:42 | 32.09129 | 127.25833 | 32983 ft | 561 kts | 64° |
| 2026-04-26 06:42 | 32.12142 | 127.33863 | 32957 ft | 561 kts | 64° |
| 2026-04-26 06:43 | 32.15332 | 127.42371 | 32928 ft | 562 kts | 64° |
| 2026-04-26 06:43 | 32.18531 | 127.50919 | 32915 ft | 562 kts | 64° |
| 2026-04-26 06:44 | 32.21735 | 127.59497 | 32916 ft | 562 kts | 64° |
| 2026-04-26 06:44 | 32.24918 | 127.68040 | 32910 ft | 562 kts | 65° |
| 2026-04-26 06:45 | 32.28079 | 127.76547 | 32910 ft | 562 kts | 65° |
| 2026-04-26 06:45 | 32.31255 | 127.85111 | 32911 ft | 562 kts | 65° |
| 2026-04-26 06:46 | 32.34431 | 127.93702 | 32912 ft | 562 kts | 65° |
| 2026-04-26 06:46 | 32.37583 | 128.02248 | 32911 ft | 562 kts | 65° |
| 2026-04-26 06:47 | 32.40754 | 128.10867 | 32912 ft | 562 kts | 65° |
| 2026-04-26 06:47 | 32.43888 | 128.19406 | 32913 ft | 562 kts | 65° |
| 2026-04-26 06:48 | 32.47035 | 128.28000 | 32913 ft | 562 kts | 65° |
| 2026-04-26 06:48 | 32.50163 | 128.36569 | 32914 ft | 562 kts | 65° |
| 2026-04-26 06:49 | 32.53305 | 128.45197 | 32914 ft | 562 kts | 65° |
| 2026-04-26 06:49 | 32.56424 | 128.53781 | 32915 ft | 562 kts | 65° |
| 2026-04-26 06:50 | 32.59514 | 128.62311 | 32915 ft | 562 kts | 65° |
| 2026-04-26 06:50 | 32.62554 | 128.70721 | 32910 ft | 562 kts | 65° |
| 2026-04-26 06:51 | 32.65692 | 128.79295 | 32906 ft | 561 kts | 62° |
| 2026-04-26 06:51 | 32.70047 | 128.87013 | 32915 ft | 556 kts | 47° |
| 2026-04-26 06:51 | 32.72577 | 128.90544 | 32912 ft | 556 kts | 47° |
| 2026-04-26 06:52 | 32.77638 | 128.97607 | 32911 ft | 556 kts | 47° |
| 2026-04-26 06:52 | 32.82703 | 129.04672 | 32911 ft | 555 kts | 47° |
| 2026-04-26 06:53 | 32.87763 | 129.11734 | 32912 ft | 555 kts | 47° |
| 2026-04-26 06:53 | 32.92807 | 129.18787 | 32916 ft | 555 kts | 47° |
| 2026-04-26 06:54 | 32.97833 | 129.25825 | 32925 ft | 555 kts | 47° |
| 2026-04-26 06:54 | 33.02899 | 129.32935 | 32935 ft | 560 kts | 46° |
| 2026-04-26 06:55 | 33.07990 | 129.40091 | 32942 ft | 566 kts | 46° |
| 2026-04-26 06:55 | 33.13145 | 129.47351 | 32944 ft | 572 kts | 46° |
| 2026-04-26 06:56 | 33.18346 | 129.54689 | 32942 ft | 573 kts | 46° |
| 2026-04-26 06:56 | 33.23567 | 129.62070 | 32945 ft | 574 kts | 46° |
| 2026-04-26 06:57 | 33.28735 | 129.69392 | 32934 ft | 574 kts | 46° |
| 2026-04-26 06:57 | 33.34130 | 129.76555 | 32928 ft | 569 kts | 40° |
| 2026-04-26 06:58 | 33.38943 | 129.82089 | 32921 ft | 570 kts | 40° |
| 2026-04-26 06:58 | 33.44681 | 129.88771 | 32914 ft | 570 kts | 40° |
| 2026-04-26 06:59 | 33.50395 | 129.95474 | 32918 ft | 570 kts | 40° |
| 2026-04-26 06:59 | 33.56101 | 130.02194 | 32919 ft | 570 kts | 40° |
| 2026-04-26 07:00 | 33.62737 | 130.10034 | 32913 ft | 570 kts | 40° |
| 2026-04-26 07:00 | 33.67502 | 130.15678 | 32913 ft | 571 kts | 40° |
| 2026-04-26 07:01 | 33.74186 | 130.23612 | 32914 ft | 571 kts | 40° |
| 2026-04-26 07:01 | 33.78909 | 130.29230 | 32915 ft | 570 kts | 40° |
| 2026-04-26 07:02 | 33.84596 | 130.36006 | 32916 ft | 571 kts | 40° |
| 2026-04-26 07:02 | 33.90304 | 130.42822 | 32917 ft | 571 kts | 40° |
| 2026-04-26 07:03 | 33.96954 | 130.50780 | 32918 ft | 571 kts | 40° |
| 2026-04-26 07:03 | 34.01664 | 130.56427 | 32918 ft | 571 kts | 40° |
| 2026-04-26 07:04 | 34.07220 | 130.63400 | 32932 ft | 572 kts | 43° |
| 2026-04-26 07:04 | 34.12700 | 130.70528 | 32942 ft | 572 kts | 43° |
| 2026-04-26 07:05 | 34.18171 | 130.77655 | 32959 ft | 572 kts | 43° |
| 2026-04-26 07:05 | 34.23640 | 130.84793 | 32964 ft | 572 kts | 43° |
| 2026-04-26 07:06 | 34.29199 | 130.93915 | 32970 ft | 577 kts | 54° |
| 2026-04-26 07:06 | 34.33519 | 131.02252 | 32966 ft | 577 kts | 54° |
| 2026-04-26 07:07 | 34.37797 | 131.10568 | 32965 ft | 576 kts | 54° |
| 2026-04-26 07:07 | 34.42056 | 131.18878 | 32968 ft | 577 kts | 54° |
| 2026-04-26 07:08 | 34.46333 | 131.27252 | 32969 ft | 577 kts | 54° |
| 2026-04-26 07:08 | 34.50586 | 131.35602 | 32968 ft | 577 kts | 54° |
| 2026-04-26 07:09 | 34.54847 | 131.43990 | 32972 ft | 577 kts | 54° |
| 2026-04-26 07:09 | 34.59094 | 131.52371 | 32945 ft | 577 kts | 54° |
| 2026-04-26 07:11 | 34.69687 | 131.73358 | 32936 ft | 577 kts | 55° |
| 2026-04-26 07:11 | 34.73922 | 131.81786 | 32935 ft | 577 kts | 55° |
| 2026-04-26 07:12 | 34.78130 | 131.90178 | 32935 ft | 577 kts | 55° |
| 2026-04-26 07:12 | 34.82544 | 131.98402 | 32937 ft | 571 kts | 48° |
| 2026-04-26 07:12 | 34.84983 | 132.02190 | 32917 ft | 549 kts | 47° |
| 2026-04-26 07:13 | 34.87307 | 132.05809 | 32916 ft | 528 kts | 47° |
| 2026-04-26 07:13 | 34.89578 | 132.09338 | 32914 ft | 510 kts | 47° |
| 2026-04-26 07:13 | 34.91774 | 132.12750 | 32933 ft | 506 kts | 47° |
| 2026-04-26 07:14 | 34.96208 | 132.19638 | 32942 ft | 516 kts | 46° |
| 2026-04-26 07:14 | 35.00678 | 132.26605 | 32942 ft | 518 kts | 46° |
| 2026-04-26 07:15 | 35.05187 | 132.33649 | 32944 ft | 523 kts | 46° |
| 2026-04-26 07:15 | 35.09722 | 132.40745 | 32939 ft | 521 kts | 46° |
| 2026-04-26 07:16 | 35.14236 | 132.47823 | 32949 ft | 523 kts | 46° |
| 2026-04-26 07:16 | 35.18751 | 132.54916 | 32948 ft | 523 kts | 46° |
| 2026-04-26 07:17 | 35.23249 | 132.62001 | 32952 ft | 523 kts | 46° |
| 2026-04-26 07:17 | 35.27779 | 132.69150 | 32931 ft | 522 kts | 47° |
| 2026-04-26 07:18 | 35.32266 | 132.76242 | 32936 ft | 523 kts | 47° |
| 2026-04-26 07:18 | 35.36759 | 132.83360 | 32935 ft | 523 kts | 47° |
| 2026-04-26 07:19 | 35.41267 | 132.90517 | 32939 ft | 524 kts | 47° |
| 2026-04-26 07:19 | 35.45748 | 132.97647 | 32938 ft | 521 kts | 46° |
| 2026-04-26 07:20 | 35.50216 | 133.04768 | 32941 ft | 522 kts | 47° |
| 2026-04-26 07:20 | 35.55012 | 133.11493 | 32947 ft | 511 kts | 36° |
| 2026-04-26 07:21 | 35.60327 | 133.17526 | 32939 ft | 513 kts | 36° |
| 2026-04-26 07:21 | 35.65609 | 133.23520 | 32939 ft | 511 kts | 36° |
| 2026-04-26 07:22 | 35.70888 | 133.29511 | 32943 ft | 511 kts | 36° |
| 2026-04-26 07:22 | 35.76197 | 133.35545 | 32944 ft | 512 kts | 36° |
| 2026-04-26 07:23 | 35.81472 | 133.41553 | 32944 ft | 511 kts | 36° |
| 2026-04-26 07:23 | 35.86782 | 133.47610 | 32947 ft | 511 kts | 36° |
| 2026-04-26 07:24 | 35.92073 | 133.53657 | 32949 ft | 512 kts | 36° |
| 2026-04-26 07:24 | 35.97324 | 133.59671 | 32947 ft | 511 kts | 36° |
| 2026-04-26 07:25 | 36.02587 | 133.65710 | 32942 ft | 512 kts | 37° |
| 2026-04-26 07:25 | 36.07872 | 133.71785 | 32932 ft | 512 kts | 37° |
| 2026-04-26 07:26 | 36.13156 | 133.77873 | 32931 ft | 511 kts | 37° |
| 2026-04-26 07:26 | 36.18413 | 133.83939 | 32937 ft | 511 kts | 37° |
| 2026-04-26 07:27 | 36.23693 | 133.90044 | 32934 ft | 511 kts | 37° |
| 2026-04-26 07:27 | 36.28967 | 133.96153 | 32936 ft | 511 kts | 37° |
| 2026-04-26 07:28 | 36.34186 | 134.02211 | 32937 ft | 512 kts | 37° |
| 2026-04-26 07:28 | 36.39481 | 134.08369 | 32939 ft | 511 kts | 37° |
| 2026-04-26 07:29 | 36.44726 | 134.14482 | 32939 ft | 511 kts | 37° |
| 2026-04-26 07:29 | 36.49939 | 134.20569 | 32941 ft | 511 kts | 37° |
| 2026-04-26 07:30 | 36.55195 | 134.26715 | 32942 ft | 511 kts | 37° |
| 2026-04-26 07:30 | 36.60453 | 134.32878 | 32945 ft | 513 kts | 37° |
| 2026-04-26 07:31 | 36.65693 | 134.39033 | 32941 ft | 511 kts | 37° |
| 2026-04-26 07:31 | 36.70925 | 134.45189 | 32953 ft | 512 kts | 37° |
| 2026-04-26 07:32 | 36.76139 | 134.51337 | 32958 ft | 511 kts | 37° |
| 2026-04-26 07:32 | 36.81402 | 134.57555 | 32965 ft | 512 kts | 37° |
| 2026-04-26 07:33 | 36.86603 | 134.63713 | 32973 ft | 512 kts | 37° |
| 2026-04-26 07:33 | 36.91888 | 134.69978 | 32963 ft | 513 kts | 37° |
| 2026-04-26 07:34 | 36.97100 | 134.76173 | 32957 ft | 513 kts | 37° |
| 2026-04-26 07:34 | 37.02373 | 134.82452 | 32964 ft | 518 kts | 37° |
| 2026-04-26 07:35 | 37.07652 | 134.88751 | 32962 ft | 523 kts | 36° |
| 2026-04-26 07:35 | 37.13026 | 134.95177 | 32965 ft | 529 kts | 36° |
| 2026-04-26 07:36 | 37.18409 | 135.01628 | 32964 ft | 528 kts | 36° |
| 2026-04-26 07:36 | 37.23796 | 135.08095 | 32969 ft | 528 kts | 36° |
| 2026-04-26 07:37 | 37.29157 | 135.14545 | 32968 ft | 528 kts | 36° |
| 2026-04-26 07:37 | 37.34508 | 135.20995 | 32969 ft | 528 kts | 36° |
| 2026-04-26 07:38 | 37.39880 | 135.27487 | 32970 ft | 529 kts | 36° |
| 2026-04-26 07:38 | 37.45279 | 135.34024 | 32971 ft | 528 kts | 36° |
| 2026-04-26 07:39 | 37.50599 | 135.40479 | 32974 ft | 528 kts | 36° |
| 2026-04-26 07:39 | 37.55986 | 135.47028 | 32982 ft | 529 kts | 36° |
| 2026-04-26 07:40 | 37.61342 | 135.53552 | 32993 ft | 528 kts | 36° |
| 2026-04-26 07:40 | 37.66698 | 135.60092 | 33002 ft | 529 kts | 36° |
| 2026-04-26 07:41 | 37.72048 | 135.66637 | 32990 ft | 529 kts | 37° |
| 2026-04-26 07:41 | 37.77377 | 135.73172 | 32989 ft | 529 kts | 37° |
| 2026-04-26 07:42 | 37.82706 | 135.79719 | 32990 ft | 529 kts | 37° |
| 2026-04-26 07:42 | 37.88040 | 135.86289 | 32992 ft | 528 kts | 37° |
| 2026-04-26 07:43 | 37.93397 | 135.92897 | 32992 ft | 529 kts | 37° |
| 2026-04-26 07:43 | 37.98695 | 135.99449 | 32993 ft | 529 kts | 37° |
| 2026-04-26 07:44 | 38.04032 | 136.06064 | 32994 ft | 529 kts | 37° |
| 2026-04-26 07:44 | 38.09365 | 136.12686 | 32994 ft | 528 kts | 37° |
| 2026-04-26 07:45 | 38.14683 | 136.19304 | 32996 ft | 529 kts | 37° |
| 2026-04-26 07:45 | 38.20025 | 136.25967 | 32998 ft | 528 kts | 37° |
| 2026-04-26 07:46 | 38.25317 | 136.32584 | 32999 ft | 529 kts | 37° |
| 2026-04-26 07:46 | 38.30631 | 136.39239 | 32999 ft | 528 kts | 37° |
| 2026-04-26 07:47 | 38.35936 | 136.45900 | 33000 ft | 529 kts | 37° |
| 2026-04-26 07:47 | 38.41248 | 136.52583 | 33003 ft | 529 kts | 37° |
| 2026-04-26 07:48 | 38.46544 | 136.59261 | 33004 ft | 529 kts | 37° |
| 2026-04-26 07:48 | 38.51863 | 136.65993 | 32995 ft | 529 kts | 40° |
| 2026-04-26 07:49 | 38.57144 | 136.72688 | 32988 ft | 530 kts | 37° |
| 2026-04-26 07:49 | 38.62473 | 136.79440 | 32988 ft | 530 kts | 38° |
| 2026-04-26 07:50 | 38.70470 | 136.89606 | 33011 ft | 547 kts | 38° |
| 2026-04-26 07:50 | 38.73252 | 136.93146 | 33012 ft | 565 kts | 38° |
| 2026-04-26 07:50 | 38.76113 | 136.96794 | 33011 ft | 582 kts | 38° |
| 2026-04-26 07:51 | 38.81981 | 137.04309 | 32996 ft | 594 kts | 38° |
| 2026-04-26 07:51 | 38.87929 | 137.11946 | 32995 ft | 594 kts | 38° |
| 2026-04-26 07:52 | 38.93835 | 137.19548 | 32996 ft | 599 kts | 38° |
| 2026-04-26 07:52 | 38.99816 | 137.27260 | 32998 ft | 604 kts | 37° |
| 2026-04-26 07:53 | 39.05893 | 137.35113 | 33001 ft | 610 kts | 37° |
| 2026-04-26 07:53 | 39.11927 | 137.42932 | 33002 ft | 611 kts | 37° |
| 2026-04-26 07:54 | 39.17987 | 137.50804 | 33004 ft | 611 kts | 37° |
| 2026-04-26 07:54 | 39.24036 | 137.58682 | 33005 ft | 611 kts | 37° |
| 2026-04-26 07:55 | 39.30125 | 137.66634 | 32994 ft | 611 kts | 38° |
| 2026-04-26 07:55 | 39.36127 | 137.74493 | 32986 ft | 611 kts | 38° |
| 2026-04-26 07:56 | 39.42187 | 137.82451 | 32988 ft | 610 kts | 38° |
| 2026-04-26 07:56 | 39.48219 | 137.90390 | 32990 ft | 611 kts | 38° |
| 2026-04-26 07:57 | 39.54223 | 137.98311 | 32993 ft | 611 kts | 38° |
| 2026-04-26 07:57 | 39.60262 | 138.06305 | 33007 ft | 610 kts | 37° |
| 2026-04-26 07:58 | 39.66313 | 138.14331 | 33021 ft | 611 kts | 37° |
| 2026-04-26 07:58 | 39.72343 | 138.22353 | 33025 ft | 611 kts | 38° |
| 2026-04-26 07:59 | 39.78413 | 138.30449 | 33026 ft | 611 kts | 38° |
| 2026-04-26 07:59 | 39.84398 | 138.38452 | 33028 ft | 611 kts | 38° |
| 2026-04-26 08:00 | 39.90434 | 138.46547 | 33029 ft | 611 kts | 38° |
| 2026-04-26 08:00 | 39.96425 | 138.54602 | 33031 ft | 612 kts | 38° |
| 2026-04-26 08:01 | 40.02378 | 138.62630 | 33034 ft | 611 kts | 37° |
| 2026-04-26 08:01 | 40.08399 | 138.70766 | 33013 ft | 612 kts | 38° |
| 2026-04-26 08:02 | 40.14409 | 138.78914 | 33015 ft | 612 kts | 38° |
| 2026-04-26 08:02 | 40.20400 | 138.87056 | 33016 ft | 612 kts | 38° |
| 2026-04-26 08:03 | 40.26350 | 138.95165 | 33018 ft | 612 kts | 38° |
| 2026-04-26 08:03 | 40.32343 | 139.03354 | 33020 ft | 612 kts | 38° |
| 2026-04-26 08:04 | 40.38311 | 139.11531 | 33022 ft | 612 kts | 38° |
| 2026-04-26 08:04 | 40.44279 | 139.19733 | 33024 ft | 612 kts | 38° |
| 2026-04-26 08:05 | 40.50201 | 139.27893 | 33026 ft | 612 kts | 38° |
| 2026-04-26 08:05 | 40.56271 | 139.36279 | 33027 ft | 612 kts | 38° |
| 2026-04-26 08:06 | 40.62387 | 139.44753 | 33029 ft | 612 kts | 38° |
| 2026-04-26 08:06 | 40.68602 | 139.53391 | 33031 ft | 612 kts | 38° |
| 2026-04-26 08:07 | 40.74684 | 139.61865 | 33033 ft | 612 kts | 38° |
| 2026-04-26 08:07 | 40.80856 | 139.70489 | 33013 ft | 612 kts | 39° |
| 2026-04-26 08:08 | 40.86851 | 139.78893 | 33015 ft | 612 kts | 39° |
| 2026-04-26 08:08 | 40.92829 | 139.87295 | 33017 ft | 612 kts | 39° |
| 2026-04-26 08:09 | 40.98884 | 139.95828 | 33020 ft | 612 kts | 39° |
| 2026-04-26 08:09 | 41.04964 | 140.04421 | 33021 ft | 608 kts | 40° |
| 2026-04-26 08:10 | 41.09887 | 140.11397 | 33023 ft | 604 kts | 41° |
| 2026-04-26 08:10 | 41.15984 | 140.19115 | 33020 ft | 589 kts | 30° |
| 2026-04-26 08:11 | 41.22787 | 140.25435 | 33023 ft | 587 kts | 28° |
| 2026-04-26 08:11 | 41.29711 | 140.31912 | 33024 ft | 587 kts | 28° |
| 2026-04-26 08:12 | 41.36542 | 140.38365 | 33025 ft | 587 kts | 28° |
| 2026-04-26 08:12 | 41.43114 | 140.44615 | 33017 ft | 568 kts | 28° |
| 2026-04-26 08:13 | 41.49558 | 140.50760 | 33022 ft | 555 kts | 28° |
| 2026-04-26 08:13 | 41.52706 | 140.53770 | 33018 ft | 543 kts | 27° |
| 2026-04-26 08:13 | 41.55758 | 140.56699 | 33008 ft | 525 kts | 27° |
| 2026-04-26 08:14 | 41.58696 | 140.59517 | 33010 ft | 508 kts | 27° |
| 2026-04-26 08:14 | 41.61600 | 140.62299 | 33026 ft | 503 kts | 27° |
| 2026-04-26 08:14 | 41.67415 | 140.67873 | 33011 ft | 507 kts | 28° |
| 2026-04-26 08:15 | 41.73194 | 140.73438 | 33015 ft | 508 kts | 28° |
| 2026-04-26 08:15 | 41.78987 | 140.79033 | 33014 ft | 506 kts | 28° |
| 2026-04-26 08:16 | 41.84767 | 140.84625 | 33016 ft | 507 kts | 28° |
| 2026-04-26 08:16 | 41.90585 | 140.90268 | 33019 ft | 508 kts | 28° |
| 2026-04-26 08:17 | 41.96354 | 140.95877 | 33020 ft | 507 kts | 28° |
| 2026-04-26 08:17 | 42.02140 | 141.01517 | 33022 ft | 506 kts | 28° |
| 2026-04-26 08:18 | 42.07892 | 141.07132 | 33022 ft | 507 kts | 27° |
| 2026-04-26 08:18 | 42.13659 | 141.12779 | 33020 ft | 506 kts | 27° |
| 2026-04-26 08:19 | 42.19410 | 141.18422 | 33019 ft | 506 kts | 28° |
| 2026-04-26 08:19 | 42.25181 | 141.24098 | 33021 ft | 504 kts | 28° |
| 2026-04-26 08:20 | 42.30936 | 141.29768 | 33026 ft | 507 kts | 28° |
| 2026-04-26 08:20 | 42.36658 | 141.35425 | 33021 ft | 503 kts | 27° |
| 2026-04-26 08:21 | 42.42372 | 141.41081 | 33029 ft | 505 kts | 27° |
| 2026-04-26 08:21 | 42.48138 | 141.46803 | 33029 ft | 506 kts | 28° |
| 2026-04-26 08:22 | 42.53869 | 141.52506 | 33029 ft | 506 kts | 27° |
| 2026-04-26 08:22 | 42.59596 | 141.58218 | 33027 ft | 504 kts | 27° |
| 2026-04-26 08:23 | 42.65342 | 141.63959 | 32716 ft | 513 kts | 28° |
| 2026-04-26 08:23 | 42.68272 | 141.66882 | 31206 ft | 533 kts | 29° |
| 2026-04-26 08:23 | 42.71347 | 141.69925 | 29232 ft | 556 kts | 30° |
| 2026-04-26 08:24 | 42.74540 | 141.73055 | 27278 ft | 572 kts | 30° |
| 2026-04-26 08:24 | 42.77809 | 141.76270 | 25307 ft | 579 kts | 31° |
| 2026-04-26 08:24 | 42.81095 | 141.79414 | 24149 ft | 566 kts | 28° |
| 2026-04-26 08:24 | 42.84493 | 141.81929 | 23090 ft | 536 kts | 20° |
| 2026-04-26 08:25 | 42.87848 | 141.83768 | 21073 ft | 507 kts | 13° |
| 2026-04-26 08:25 | 42.92138 | 141.85074 | 18489 ft | 475 kts | 3° |
| 2026-04-26 08:25 | 42.95330 | 141.85400 | 16480 ft | 456 kts | 358° |
| 2026-04-26 08:25 | 42.98457 | 141.85223 | 14431 ft | 439 kts | 350° |
| 2026-04-26 08:26 | 43.01348 | 141.84384 | 12429 ft | 424 kts | 341° |
| 2026-04-26 08:26 | 43.04055 | 141.82892 | 10385 ft | 412 kts | 331° |
| 2026-04-26 08:26 | 43.06413 | 141.80855 | 8378 ft | 401 kts | 320° |
| 2026-04-26 08:26 | 43.08370 | 141.78223 | 6846 ft | 375 kts | 303° |
| 2026-04-26 08:27 | 43.09528 | 141.75188 | 6579 ft | 326 kts | 286° |
| 2026-04-26 08:27 | 43.09889 | 141.72223 | 6279 ft | 289 kts | 266° |
| 2026-04-26 08:27 | 43.09469 | 141.69640 | 5776 ft | 266 kts | 240° |
| 2026-04-26 08:27 | 43.08300 | 141.67792 | 5288 ft | 248 kts | 212° |
| 2026-04-26 08:28 | 43.06705 | 141.67061 | 4805 ft | 236 kts | 181° |
| 2026-04-26 08:28 | 43.05091 | 141.67302 | 4327 ft | 228 kts | 175° |
| 2026-04-26 08:28 | 43.03506 | 141.67381 | 3817 ft | 222 kts | 183° |
| 2026-04-26 08:28 | 43.01979 | 141.67210 | 3315 ft | 218 kts | 187° |
| 2026-04-26 08:29 | 43.00434 | 141.66914 | 2995 ft | 219 kts | 190° |
| 2026-04-26 08:29 | 42.98963 | 141.66576 | 2982 ft | 207 kts | 186° |
| 2026-04-26 08:29 | 42.97536 | 141.66441 | 2979 ft | 196 kts | 181° |
| 2026-04-26 08:29 | 42.96199 | 141.66447 | 2980 ft | 184 kts | 179° |
| 2026-04-26 08:30 | 42.94924 | 141.66534 | 2979 ft | 172 kts | 177° |
| 2026-04-26 08:30 | 42.93773 | 141.66658 | 3023 ft | 163 kts | 176° |
| 2026-04-26 08:30 | 42.92596 | 141.66812 | 2823 ft | 171 kts | 175° |
| 2026-04-26 08:30 | 42.91364 | 141.66995 | 2471 ft | 177 kts | 174° |
| 2026-04-26 08:31 | 42.90135 | 141.67195 | 2313 ft | 170 kts | 174° |
| 2026-04-26 08:31 | 42.88956 | 141.67395 | 2076 ft | 166 kts | 173° |
| 2026-04-26 08:31 | 42.87815 | 141.67592 | 1854 ft | 161 kts | 173° |
| 2026-04-26 08:31 | 42.86721 | 141.67784 | 1656 ft | 148 kts | 173° |
| 2026-04-26 08:32 | 42.85723 | 141.67960 | 1419 ft | 135 kts | 173° |
| 2026-04-26 08:32 | 42.84792 | 141.68124 | 1231 ft | 132 kts | 173° |
| 2026-04-26 08:32 | 42.83866 | 141.68288 | 1076 ft | 133 kts | 172° |
| 2026-04-26 08:32 | 42.82942 | 141.68453 | 900 ft | 132 kts | 172° |
| 2026-04-26 08:33 | 42.82015 | 141.68616 | 723 ft | 132 kts | 172° |
| 2026-04-26 08:33 | 42.81100 | 141.68777 | 548 ft | 131 kts | 172° |
| 2026-04-26 08:33 | 42.80172 | 141.68942 | 367 ft | 131 kts | 172° |
| 2026-04-26 08:33 | 42.79266 | 141.69102 | 196 ft | 131 kts | 172° |
| 2026-04-26 08:34 | 42.78350 | 141.69266 | 73 ft | 126 kts | 172° |
| 2026-04-26 08:34 | 42.78055 | 141.69322 | 71 ft | 113 kts | 171° |